sensor_id;sensor_type;location;lat;lon;timestamp;temperature;humidity
43015;DHT22;28637;50.554;7.032;2022-12-18T00:00:52;-8.20;99.90
43015;DHT22;28637;50.554;7.032;2022-12-18T00:05:53;-8.40;99.90
43015;DHT22;28637;50.554;7.032;2022-12-18T00:10:54;-8.60;99.90
43015;DHT22;28637;50.554;7.032;2022-12-18T00:15:54;-8.90;99.90
43015;DHT22;28637;50.554;7.032;2022-12-18T00:20:59;-9.00;99.90
43015;DHT22;28637;50.554;7.032;2022-12-18T00:26:02;-9.10;99.90
43015;DHT22;28637;50.554;7.032;2022-12-18T00:31:05;-9.30;99.90
43015;DHT22;28637;50.554;7.032;2022-12-18T00:36:14;-9.20;99.90
43015;DHT22;28637;50.554;7.032;2022-12-18T00:41:17;-8.90;99.90
43015;DHT22;28637;50.554;7.032;2022-12-18T00:46:41;-8.80;99.90
43015;DHT22;28637;50.554;7.032;2022-12-18T00:51:42;-8.90;99.90
43015;DHT22;28637;50.554;7.032;2022-12-18T00:56:43;-9.00;99.90
43015;DHT22;28637;50.554;7.032;2022-12-18T01:01:44;-9.00;99.90
43015;DHT22;28637;50.554;7.032;2022-12-18T01:06:45;-8.90;99.90
43015;DHT22;28637;50.554;7.032;2022-12-18T01:11:54;-8.90;99.90
43015;DHT22;28637;50.554;7.032;2022-12-18T01:16:55;-8.80;99.90
43015;DHT22;28637;50.554;7.032;2022-12-18T01:21:56;-8.60;99.90
43015;DHT22;28637;50.554;7.032;2022-12-18T01:26:56;-8.40;99.90
43015;DHT22;28637;50.554;7.032;2022-12-18T01:31:57;-8.40;99.90
43015;DHT22;28637;50.554;7.032;2022-12-18T01:36:58;-8.60;99.90
43015;DHT22;28637;50.554;7.032;2022-12-18T01:42:00;-8.70;99.90
43015;DHT22;28637;50.554;7.032;2022-12-18T01:47:05;-8.70;99.90
43015;DHT22;28637;50.554;7.032;2022-12-18T01:52:06;-8.80;99.90
43015;DHT22;28637;50.554;7.032;2022-12-18T01:57:07;-9.00;99.90
43015;DHT22;28637;50.554;7.032;2022-12-18T02:02:10;-8.90;99.90
43015;DHT22;28637;50.554;7.032;2022-12-18T02:12:20;-8.70;99.90
43015;DHT22;28637;50.554;7.032;2022-12-18T02:17:24;-8.70;99.90
43015;DHT22;28637;50.554;7.032;2022-12-18T02:28:07;-8.70;99.90
43015;DHT22;28637;50.554;7.032;2022-12-18T02:33:11;-8.70;99.90
43015;DHT22;28637;50.554;7.032;2022-12-18T02:38:13;-8.70;99.90
43015;DHT22;28637;50.554;7.032;2022-12-18T02:43:16;-8.80;99.90
43015;DHT22;28637;50.554;7.032;2022-12-18T02:48:19;-9.10;99.90
43015;DHT22;28637;50.554;7.032;2022-12-18T02:58:47;-9.40;99.90
43015;DHT22;28637;50.554;7.032;2022-12-18T03:04:06;-9.50;99.90
43015;DHT22;28637;50.554;7.032;2022-12-18T03:09:15;-9.10;99.90
43015;DHT22;28637;50.554;7.032;2022-12-18T03:14:20;-8.80;99.90
43015;DHT22;28637;50.554;7.032;2022-12-18T03:19:24;-8.60;99.90
43015;DHT22;28637;50.554;7.032;2022-12-18T03:24:28;-8.40;99.90
43015;DHT22;28637;50.554;7.032;2022-12-18T03:29:47;-8.30;99.90
43015;DHT22;28637;50.554;7.032;2022-12-18T03:34:50;-8.20;99.90
43015;DHT22;28637;50.554;7.032;2022-12-18T03:39:52;-8.00;99.90
43015;DHT22;28637;50.554;7.032;2022-12-18T03:55:33;-7.90;99.90
43015;DHT22;28637;50.554;7.032;2022-12-18T04:00:35;-7.90;99.90
43015;DHT22;28637;50.554;7.032;2022-12-18T04:05:36;-7.90;99.90
43015;DHT22;28637;50.554;7.032;2022-12-18T04:10:37;-8.10;99.90
43015;DHT22;28637;50.554;7.032;2022-12-18T04:15:38;-8.00;99.90
43015;DHT22;28637;50.554;7.032;2022-12-18T04:20:39;-7.90;99.90
43015;DHT22;28637;50.554;7.032;2022-12-18T04:25:40;-7.80;99.90
43015;DHT22;28637;50.554;7.032;2022-12-18T04:30:41;-7.70;99.90
43015;DHT22;28637;50.554;7.032;2022-12-18T04:35:42;-7.70;99.90
43015;DHT22;28637;50.554;7.032;2022-12-18T04:40:43;-7.80;99.90
43015;DHT22;28637;50.554;7.032;2022-12-18T04:45:43;-7.80;99.90
43015;DHT22;28637;50.554;7.032;2022-12-18T04:50:44;-7.80;99.90
43015;DHT22;28637;50.554;7.032;2022-12-18T04:55:45;-7.80;99.90
43015;DHT22;28637;50.554;7.032;2022-12-18T05:00:45;-7.90;99.90
43015;DHT22;28637;50.554;7.032;2022-12-18T05:05:49;-7.90;99.90
43015;DHT22;28637;50.554;7.032;2022-12-18T05:10:58;-7.90;99.90
43015;DHT22;28637;50.554;7.032;2022-12-18T05:16:00;-7.80;99.90
43015;DHT22;28637;50.554;7.032;2022-12-18T05:21:01;-7.90;99.90
43015;DHT22;28637;50.554;7.032;2022-12-18T05:26:04;-8.00;99.90
43015;DHT22;28637;50.554;7.032;2022-12-18T05:31:05;-8.10;99.90
43015;DHT22;28637;50.554;7.032;2022-12-18T05:36:08;-8.20;99.90
43015;DHT22;28637;50.554;7.032;2022-12-18T05:41:09;-8.10;99.90
43015;DHT22;28637;50.554;7.032;2022-12-18T05:46:15;-8.20;99.90
43015;DHT22;28637;50.554;7.032;2022-12-18T05:51:20;-8.20;99.90
43015;DHT22;28637;50.554;7.032;2022-12-18T05:56:22;-8.20;99.90
43015;DHT22;28637;50.554;7.032;2022-12-18T06:01:25;-8.10;99.90
43015;DHT22;28637;50.554;7.032;2022-12-18T06:06:27;-8.00;99.90
43015;DHT22;28637;50.554;7.032;2022-12-18T06:11:28;-7.90;99.90
43015;DHT22;28637;50.554;7.032;2022-12-18T06:16:29;-7.90;99.90
43015;DHT22;28637;50.554;7.032;2022-12-18T06:21:30;-7.80;99.90
43015;DHT22;28637;50.554;7.032;2022-12-18T06:26:31;-7.60;99.90
43015;DHT22;28637;50.554;7.032;2022-12-18T06:31:32;-7.50;99.90
43015;DHT22;28637;50.554;7.032;2022-12-18T06:36:33;-7.50;99.90
43015;DHT22;28637;50.554;7.032;2022-12-18T06:41:34;-7.40;99.90
43015;DHT22;28637;50.554;7.032;2022-12-18T06:46:34;-7.60;99.90
43015;DHT22;28637;50.554;7.032;2022-12-18T06:51:35;-7.80;99.90
43015;DHT22;28637;50.554;7.032;2022-12-18T06:56:36;-7.80;99.90
43015;DHT22;28637;50.554;7.032;2022-12-18T07:01:37;-7.80;99.90
43015;DHT22;28637;50.554;7.032;2022-12-18T07:06:37;-7.80;99.90
43015;DHT22;28637;50.554;7.032;2022-12-18T07:11:38;-7.80;99.90
43015;DHT22;28637;50.554;7.032;2022-12-18T07:16:39;-7.90;99.90
43015;DHT22;28637;50.554;7.032;2022-12-18T07:21:39;-7.90;99.90
43015;DHT22;28637;50.554;7.032;2022-12-18T07:26:40;-7.90;99.90
43015;DHT22;28637;50.554;7.032;2022-12-18T07:31:41;-7.90;99.90
43015;DHT22;28637;50.554;7.032;2022-12-18T07:36:42;-7.90;99.90
43015;DHT22;28637;50.554;7.032;2022-12-18T07:41:43;-7.90;99.90
43015;DHT22;28637;50.554;7.032;2022-12-18T07:46:46;-8.10;99.90
43015;DHT22;28637;50.554;7.032;2022-12-18T07:51:46;-8.30;99.90
43015;DHT22;28637;50.554;7.032;2022-12-18T07:56:49;-8.00;99.90
43015;DHT22;28637;50.554;7.032;2022-12-18T08:01:50;-7.90;99.90
43015;DHT22;28637;50.554;7.032;2022-12-18T08:06:51;-7.50;99.90
43015;DHT22;28637;50.554;7.032;2022-12-18T08:11:52;-7.30;99.90
43015;DHT22;28637;50.554;7.032;2022-12-18T08:16:52;-7.10;99.90
43015;DHT22;28637;50.554;7.032;2022-12-18T08:21:53;-6.90;99.90
43015;DHT22;28637;50.554;7.032;2022-12-18T08:26:54;-6.80;99.90
43015;DHT22;28637;50.554;7.032;2022-12-18T08:31:54;-6.70;99.90
43015;DHT22;28637;50.554;7.032;2022-12-18T08:36:55;-6.50;99.90
43015;DHT22;28637;50.554;7.032;2022-12-18T08:41:56;-6.30;99.90
43015;DHT22;28637;50.554;7.032;2022-12-18T08:47:15;-6.20;99.90
43015;DHT22;28637;50.554;7.032;2022-12-18T08:52:16;-6.10;99.90
43015;DHT22;28637;50.554;7.032;2022-12-18T08:57:16;-6.00;99.90
43015;DHT22;28637;50.554;7.032;2022-12-18T09:02:17;-5.90;99.90
43015;DHT22;28637;50.554;7.032;2022-12-18T09:07:17;-5.70;99.90
43015;DHT22;28637;50.554;7.032;2022-12-18T09:12:18;-5.50;99.90
43015;DHT22;28637;50.554;7.032;2022-12-18T09:17:19;-5.30;99.90
43015;DHT22;28637;50.554;7.032;2022-12-18T09:22:19;-5.00;99.90
43015;DHT22;28637;50.554;7.032;2022-12-18T09:27:20;-4.80;99.90
43015;DHT22;28637;50.554;7.032;2022-12-18T09:32:21;-4.70;99.90
43015;DHT22;28637;50.554;7.032;2022-12-18T09:37:21;-4.40;99.90
43015;DHT22;28637;50.554;7.032;2022-12-18T09:42:22;-4.00;99.90
43015;DHT22;28637;50.554;7.032;2022-12-18T09:47:30;-3.70;99.90
43015;DHT22;28637;50.554;7.032;2022-12-18T09:52:37;-3.50;99.90
43015;DHT22;28637;50.554;7.032;2022-12-18T09:57:47;-3.40;99.90
43015;DHT22;28637;50.554;7.032;2022-12-18T10:02:51;-3.20;99.90
43015;DHT22;28637;50.554;7.032;2022-12-18T10:07:59;-3.00;99.90
43015;DHT22;28637;50.554;7.032;2022-12-18T10:13:12;-2.90;99.90
43015;DHT22;28637;50.554;7.032;2022-12-18T10:18:56;-2.80;99.90
43015;DHT22;28637;50.554;7.032;2022-12-18T10:25:01;-2.70;99.90
43015;DHT22;28637;50.554;7.032;2022-12-18T10:29:43;-2.40;99.90
43015;DHT22;28637;50.554;7.032;2022-12-18T10:34:49;-2.30;99.90
43015;DHT22;28637;50.554;7.032;2022-12-18T10:45:14;-1.90;99.90
43015;DHT22;28637;50.554;7.032;2022-12-18T10:50:33;-1.80;99.90
43015;DHT22;28637;50.554;7.032;2022-12-18T10:55:38;-1.60;99.90
43015;DHT22;28637;50.554;7.032;2022-12-18T11:00:39;-1.40;99.90
43015;DHT22;28637;50.554;7.032;2022-12-18T11:05:40;-1.20;99.90
43015;DHT22;28637;50.554;7.032;2022-12-18T11:10:46;-1.00;99.90
43015;DHT22;28637;50.554;7.032;2022-12-18T11:15:48;-0.90;99.90
43015;DHT22;28637;50.554;7.032;2022-12-18T11:21:04;-0.80;99.90
43015;DHT22;28637;50.554;7.032;2022-12-18T11:26:05;-0.80;99.90
43015;DHT22;28637;50.554;7.032;2022-12-18T11:31:25;-1.00;99.90
43015;DHT22;28637;50.554;7.032;2022-12-18T11:36:43;-1.00;99.90
43015;DHT22;28637;50.554;7.032;2022-12-18T11:41:54;-0.80;99.90
43015;DHT22;28637;50.554;7.032;2022-12-18T11:52:33;-0.70;99.90
43015;DHT22;28637;50.554;7.032;2022-12-18T11:57:59;-0.60;99.90
43015;DHT22;28637;50.554;7.032;2022-12-18T12:08:41;-0.40;99.90
43015;DHT22;28637;50.554;7.032;2022-12-18T12:19:20;-0.20;99.90
43015;DHT22;28637;50.554;7.032;2022-12-18T12:24:49;-0.20;99.90
43015;DHT22;28637;50.554;7.032;2022-12-18T12:30:18;-0.30;99.90
43015;DHT22;28637;50.554;7.032;2022-12-18T12:40:28;-0.40;99.90
43015;DHT22;28637;50.554;7.032;2022-12-18T12:50:44;-0.50;99.90
43015;DHT22;28637;50.554;7.032;2022-12-18T12:55:45;-0.40;99.90
43015;DHT22;28637;50.554;7.032;2022-12-18T13:01:16;-0.50;99.90
43015;DHT22;28637;50.554;7.032;2022-12-18T13:06:35;-0.50;99.90
43015;DHT22;28637;50.554;7.032;2022-12-18T13:11:38;-0.40;99.90
43015;DHT22;28637;50.554;7.032;2022-12-18T13:17:20;-0.40;99.90
43015;DHT22;28637;50.554;7.032;2022-12-18T13:22:40;-0.40;99.90
43015;DHT22;28637;50.554;7.032;2022-12-18T13:32:43;-0.40;99.90
43015;DHT22;28637;50.554;7.032;2022-12-18T13:37:51;-0.40;99.90
43015;DHT22;28637;50.554;7.032;2022-12-18T13:42:53;-0.60;99.90
43015;DHT22;28637;50.554;7.032;2022-12-18T13:48:22;-0.50;99.90
43015;DHT22;28637;50.554;7.032;2022-12-18T13:53:26;-0.50;99.90
43015;DHT22;28637;50.554;7.032;2022-12-18T13:58:28;-0.70;99.90
43015;DHT22;28637;50.554;7.032;2022-12-18T14:03:29;-0.80;99.90
43015;DHT22;28637;50.554;7.032;2022-12-18T14:08:37;-0.90;99.90
43015;DHT22;28637;50.554;7.032;2022-12-18T14:13:41;-0.90;99.90
43015;DHT22;28637;50.554;7.032;2022-12-18T14:18:46;-0.80;99.90
43015;DHT22;28637;50.554;7.032;2022-12-18T14:23:48;-0.80;99.90
43015;DHT22;28637;50.554;7.032;2022-12-18T14:28:49;-0.60;99.90
43015;DHT22;28637;50.554;7.032;2022-12-18T14:33:50;-0.90;99.90
43015;DHT22;28637;50.554;7.032;2022-12-18T14:38:56;-1.30;99.90
43015;DHT22;28637;50.554;7.032;2022-12-18T14:44:05;-1.40;99.90
43015;DHT22;28637;50.554;7.032;2022-12-18T14:49:27;-1.60;99.90
43015;DHT22;28637;50.554;7.032;2022-12-18T14:54:29;-1.70;99.90
43015;DHT22;28637;50.554;7.032;2022-12-18T14:59:32;-1.90;99.90
43015;DHT22;28637;50.554;7.032;2022-12-18T15:04:39;-2.10;99.90
43015;DHT22;28637;50.554;7.032;2022-12-18T15:09:43;-2.20;99.90
43015;DHT22;28637;50.554;7.032;2022-12-18T15:14:44;-2.30;99.90
43015;DHT22;28637;50.554;7.032;2022-12-18T15:19:45;-2.30;99.90
43015;DHT22;28637;50.554;7.032;2022-12-18T15:24:46;-2.50;99.90
43015;DHT22;28637;50.554;7.032;2022-12-18T15:30:17;-2.50;99.90
43015;DHT22;28637;50.554;7.032;2022-12-18T15:35:24;-2.50;99.90
43015;DHT22;28637;50.554;7.032;2022-12-18T15:40:25;-2.70;99.90
43015;DHT22;28637;50.554;7.032;2022-12-18T15:45:26;-2.70;99.90
43015;DHT22;28637;50.554;7.032;2022-12-18T15:50:27;-2.70;99.90
43015;DHT22;28637;50.554;7.032;2022-12-18T15:55:28;-2.70;99.90
43015;DHT22;28637;50.554;7.032;2022-12-18T16:00:47;-2.70;99.90
43015;DHT22;28637;50.554;7.032;2022-12-18T16:05:48;-2.70;99.90
43015;DHT22;28637;50.554;7.032;2022-12-18T16:10:49;-2.90;99.90
43015;DHT22;28637;50.554;7.032;2022-12-18T16:15:50;-2.80;99.90
43015;DHT22;28637;50.554;7.032;2022-12-18T16:20:50;-2.80;99.90
43015;DHT22;28637;50.554;7.032;2022-12-18T16:25:51;-2.80;99.90
43015;DHT22;28637;50.554;7.032;2022-12-18T16:30:52;-2.70;99.90
43015;DHT22;28637;50.554;7.032;2022-12-18T16:35:53;-2.60;99.90
43015;DHT22;28637;50.554;7.032;2022-12-18T16:40:53;-2.50;99.90
43015;DHT22;28637;50.554;7.032;2022-12-18T16:46:13;-2.40;99.90
43015;DHT22;28637;50.554;7.032;2022-12-18T16:51:13;-2.40;99.90
43015;DHT22;28637;50.554;7.032;2022-12-18T16:56:14;-2.40;99.90
43015;DHT22;28637;50.554;7.032;2022-12-18T17:01:15;-2.40;99.90
43015;DHT22;28637;50.554;7.032;2022-12-18T17:06:17;-2.40;99.90
43015;DHT22;28637;50.554;7.032;2022-12-18T17:11:17;-2.00;99.90
43015;DHT22;28637;50.554;7.032;2022-12-18T17:16:18;-1.90;99.90
43015;DHT22;28637;50.554;7.032;2022-12-18T17:21:19;-1.90;99.90
43015;DHT22;28637;50.554;7.032;2022-12-18T17:26:20;-2.10;99.90
43015;DHT22;28637;50.554;7.032;2022-12-18T17:31:22;-2.20;99.90
43015;DHT22;28637;50.554;7.032;2022-12-18T17:36:23;-2.00;99.90
43015;DHT22;28637;50.554;7.032;2022-12-18T17:41:26;-2.00;99.90
43015;DHT22;28637;50.554;7.032;2022-12-18T17:46:28;-2.10;99.90
43015;DHT22;28637;50.554;7.032;2022-12-18T17:51:30;-2.10;99.90
43015;DHT22;28637;50.554;7.032;2022-12-18T17:56:31;-1.90;99.90
43015;DHT22;28637;50.554;7.032;2022-12-18T18:01:32;-2.00;99.90
43015;DHT22;28637;50.554;7.032;2022-12-18T18:06:33;-2.00;99.90
43015;DHT22;28637;50.554;7.032;2022-12-18T18:11:33;-1.90;99.90
43015;DHT22;28637;50.554;7.032;2022-12-18T18:16:52;-1.90;99.90
43015;DHT22;28637;50.554;7.032;2022-12-18T18:21:53;-1.90;99.90
43015;DHT22;28637;50.554;7.032;2022-12-18T18:26:54;-1.90;99.90
43015;DHT22;28637;50.554;7.032;2022-12-18T18:31:55;-1.90;99.90
43015;DHT22;28637;50.554;7.032;2022-12-18T18:36:56;-1.90;99.90
43015;DHT22;28637;50.554;7.032;2022-12-18T18:41:58;-1.90;99.90
43015;DHT22;28637;50.554;7.032;2022-12-18T18:47:00;-1.80;99.90
43015;DHT22;28637;50.554;7.032;2022-12-18T18:52:00;-1.90;99.90
43015;DHT22;28637;50.554;7.032;2022-12-18T18:57:02;-1.60;99.90
43015;DHT22;28637;50.554;7.032;2022-12-18T19:02:02;-1.70;99.90
43015;DHT22;28637;50.554;7.032;2022-12-18T19:07:03;-1.50;99.90
43015;DHT22;28637;50.554;7.032;2022-12-18T19:12:05;-1.40;99.90
43015;DHT22;28637;50.554;7.032;2022-12-18T19:17:24;-1.30;99.90
43015;DHT22;28637;50.554;7.032;2022-12-18T19:22:25;-1.40;99.90
43015;DHT22;28637;50.554;7.032;2022-12-18T19:27:26;-1.40;99.90
43015;DHT22;28637;50.554;7.032;2022-12-18T19:32:26;-1.30;99.90
43015;DHT22;28637;50.554;7.032;2022-12-18T19:37:27;-1.30;99.90
43015;DHT22;28637;50.554;7.032;2022-12-18T19:42:28;-1.30;99.90
43015;DHT22;28637;50.554;7.032;2022-12-18T19:47:29;-1.30;99.90
43015;DHT22;28637;50.554;7.032;2022-12-18T19:52:29;-1.20;99.90
43015;DHT22;28637;50.554;7.032;2022-12-18T19:57:30;-1.10;99.90
43015;DHT22;28637;50.554;7.032;2022-12-18T20:02:31;-0.90;99.90
43015;DHT22;28637;50.554;7.032;2022-12-18T20:07:35;-0.60;99.90
43015;DHT22;28637;50.554;7.032;2022-12-18T20:12:36;-0.50;99.90
43015;DHT22;28637;50.554;7.032;2022-12-18T20:17:38;-0.40;99.90
43015;DHT22;28637;50.554;7.032;2022-12-18T20:22:39;-0.30;99.90
43015;DHT22;28637;50.554;7.032;2022-12-18T20:27:39;-0.30;99.90
43015;DHT22;28637;50.554;7.032;2022-12-18T20:32:40;-0.20;99.90
43015;DHT22;28637;50.554;7.032;2022-12-18T20:37:40;-0.10;99.90
43015;DHT22;28637;50.554;7.032;2022-12-18T20:42:42;-0.10;99.90
43015;DHT22;28637;50.554;7.032;2022-12-18T20:47:43;0.00;99.90
43015;DHT22;28637;50.554;7.032;2022-12-18T20:52:46;0.00;99.90
43015;DHT22;28637;50.554;7.032;2022-12-18T20:57:46;0.10;99.90
43015;DHT22;28637;50.554;7.032;2022-12-18T21:02:48;0.00;99.90
43015;DHT22;28637;50.554;7.032;2022-12-18T21:07:49;-0.10;99.90
43015;DHT22;28637;50.554;7.032;2022-12-18T21:12:50;0.10;99.90
43015;DHT22;28637;50.554;7.032;2022-12-18T21:17:51;0.20;99.90
43015;DHT22;28637;50.554;7.032;2022-12-18T21:22:51;0.20;99.90
43015;DHT22;28637;50.554;7.032;2022-12-18T21:27:52;0.10;99.90
43015;DHT22;28637;50.554;7.032;2022-12-18T21:32:53;0.20;99.90
43015;DHT22;28637;50.554;7.032;2022-12-18T21:37:54;0.20;99.90
43015;DHT22;28637;50.554;7.032;2022-12-18T21:42:54;0.10;99.90
43015;DHT22;28637;50.554;7.032;2022-12-18T21:48:14;0.00;99.90
43015;DHT22;28637;50.554;7.032;2022-12-18T21:53:14;0.00;99.90
43015;DHT22;28637;50.554;7.032;2022-12-18T21:58:15;-0.10;99.90
43015;DHT22;28637;50.554;7.032;2022-12-18T22:03:16;-0.10;99.90
43015;DHT22;28637;50.554;7.032;2022-12-18T22:08:17;0.00;99.90
43015;DHT22;28637;50.554;7.032;2022-12-18T22:13:18;0.00;99.90
43015;DHT22;28637;50.554;7.032;2022-12-18T22:18:18;0.10;99.90
43015;DHT22;28637;50.554;7.032;2022-12-18T22:23:20;0.10;99.90
43015;DHT22;28637;50.554;7.032;2022-12-18T22:28:21;0.10;99.90
43015;DHT22;28637;50.554;7.032;2022-12-18T22:33:40;0.10;99.90
43015;DHT22;28637;50.554;7.032;2022-12-18T22:38:41;0.10;99.90
43015;DHT22;28637;50.554;7.032;2022-12-18T22:43:42;0.10;99.90
43015;DHT22;28637;50.554;7.032;2022-12-18T22:48:43;0.10;99.90
43015;DHT22;28637;50.554;7.032;2022-12-18T22:53:43;0.10;99.90
43015;DHT22;28637;50.554;7.032;2022-12-18T22:58:49;0.10;99.90
43015;DHT22;28637;50.554;7.032;2022-12-18T23:03:51;0.10;99.90
43015;DHT22;28637;50.554;7.032;2022-12-18T23:08:54;0.20;99.90
43015;DHT22;28637;50.554;7.032;2022-12-18T23:13:55;0.10;99.90
43015;DHT22;28637;50.554;7.032;2022-12-18T23:18:56;0.20;99.90
43015;DHT22;28637;50.554;7.032;2022-12-18T23:23:56;0.30;99.90
43015;DHT22;28637;50.554;7.032;2022-12-18T23:28:57;0.40;99.90
43015;DHT22;28637;50.554;7.032;2022-12-18T23:33:59;0.40;99.90
43015;DHT22;28637;50.554;7.032;2022-12-18T23:39:00;0.50;99.90
43015;DHT22;28637;50.554;7.032;2022-12-18T23:44:00;0.50;99.90
43015;DHT22;28637;50.554;7.032;2022-12-18T23:49:02;0.60;99.90
43015;DHT22;28637;50.554;7.032;2022-12-18T23:54:03;0.60;99.90
43015;DHT22;28637;50.554;7.032;2022-12-18T23:59:04;0.70;99.90
